TimeEST,TemperatureF,Dew PointF,Humidity,Sea Level PressureIn,VisibilityMPH,Wind Direction,Wind SpeedMPH,Gust SpeedMPH,PrecipitationIn,Events,Conditions,WindDirDegrees,DateUTC
12:15 AM,33.8,30.2,87,30.06,10.0,WNW,3.5,-,N/A,,Overcast,300,2013-02-16 05:15:00
12:35 AM,32.0,28.4,87,30.05,10.0,NW,6.9,-,N/A,,Mostly Cloudy,320,2013-02-16 05:35:00
12:55 AM,32.0,28.4,87,30.05,10.0,WNW,3.5,-,N/A,,Overcast,290,2013-02-16 05:55:00
1:15 AM,32.0,28.4,87,30.05,10.0,Calm,Calm,-,N/A,,Overcast,0,2013-02-16 06:15:00
1:35 AM,32.0,28.4,87,30.04,10.0,West,3.5,-,N/A,,Overcast,260,2013-02-16 06:35:00
1:55 AM,32.0,28.4,87,30.04,10.0,WNW,3.5,-,N/A,,Overcast,290,2013-02-16 06:55:00
2:15 AM,32.0,28.4,87,30.03,10.0,NNW,4.6,-,N/A,,Overcast,330,2013-02-16 07:15:00
2:35 AM,32.0,28.4,87,30.03,10.0,North,5.8,-,N/A,,Overcast,10,2013-02-16 07:35:00
2:55 AM,32.0,26.6,80,30.02,10.0,NNE,5.8,-,N/A,,Overcast,20,2013-02-16 07:55:00
3:15 AM,32.0,26.6,80,30.02,10.0,North,3.5,-,N/A,,Overcast,360,2013-02-16 08:15:00
3:35 AM,32.0,26.6,80,30.01,10.0,North,8.1,-,N/A,,Overcast,350,2013-02-16 08:35:00
3:55 AM,32.0,26.6,80,30.01,10.0,North,8.1,-,N/A,,Overcast,10,2013-02-16 08:55:00
4:15 AM,32.0,26.6,80,30.01,10.0,NNE,10.4,-,N/A,,Overcast,20,2013-02-16 09:15:00
4:35 AM,32.0,23.0,69,30.00,10.0,NNE,6.9,-,N/A,,Overcast,30,2013-02-16 09:35:00
4:55 AM,30.2,23.0,75,30.00,10.0,NNE,4.6,-,N/A,,Overcast,20,2013-02-16 09:55:00
5:15 AM,30.2,23.0,75,30.00,10.0,NE,5.8,-,N/A,,Overcast,40,2013-02-16 10:15:00
5:35 AM,30.2,21.2,69,30.00,10.0,North,8.1,-,N/A,,Overcast,360,2013-02-16 10:35:00
5:55 AM,30.2,23.0,75,30.01,10.0,North,6.9,-,N/A,,Overcast,10,2013-02-16 10:55:00
6:15 AM,30.2,23.0,75,30.00,10.0,North,4.6,-,N/A,,Overcast,10,2013-02-16 11:15:00
6:35 AM,30.2,21.2,69,29.99,10.0,North,5.8,-,N/A,,Overcast,360,2013-02-16 11:35:00
6:55 AM,30.2,21.2,69,29.99,10.0,Calm,Calm,-,N/A,,Overcast,0,2013-02-16 11:55:00
7:15 AM,30.2,23.0,75,29.99,10.0,Calm,Calm,-,N/A,,Overcast,0,2013-02-16 12:15:00
7:35 AM,30.2,23.0,75,30.00,10.0,NNW,3.5,-,N/A,,Overcast,330,2013-02-16 12:35:00
7:55 AM,28.4,21.2,74,30.00,10.0,Calm,Calm,-,N/A,,Overcast,0,2013-02-16 12:55:00
8:15 AM,28.4,21.2,74,30.01,10.0,NNW,5.8,-,N/A,,Overcast,330,2013-02-16 13:15:00
8:35 AM,28.4,21.2,74,30.01,10.0,NNW,6.9,-,N/A,,Overcast,340,2013-02-16 13:35:00
8:55 AM,28.4,21.2,74,30.01,10.0,NNW,8.1,-,N/A,,Overcast,340,2013-02-16 13:55:00
9:15 AM,30.2,21.2,69,30.01,10.0,North,3.5,-,N/A,,Overcast,350,2013-02-16 14:15:00
9:35 AM,28.4,19.4,69,30.00,10.0,NNW,6.9,-,N/A,,Overcast,330,2013-02-16 14:35:00
9:55 AM,28.4,19.4,69,30.00,10.0,North,4.6,-,N/A,,Mostly Cloudy,360,2013-02-16 14:55:00
10:15 AM,30.2,17.6,60,30.01,10.0,North,4.6,-,N/A,,Mostly Cloudy,10,2013-02-16 15:15:00
10:35 AM,30.2,17.6,60,30.01,10.0,NNE,3.5,-,N/A,,Overcast,30,2013-02-16 15:35:00
1:15 PM,32.0,14.0,48,29.98,10.0,WNW,8.1,-,N/A,,Mostly Cloudy,300,2013-02-16 18:15:00
1:35 PM,32.0,14.0,48,29.97,10.0,WNW,12.7,18.4,N/A,,Mostly Cloudy,300,2013-02-16 18:35:00
1:55 PM,32.0,14.0,48,29.97,10.0,NW,9.2,17.3,N/A,,Overcast,320,2013-02-16 18:55:00
2:15 PM,32.0,15.8,51,29.97,7.0,North,6.9,-,N/A,,Overcast,350,2013-02-16 19:15:00
2:35 PM,32.0,15.8,51,29.97,10.0,NW,5.8,-,N/A,,Overcast,320,2013-02-16 19:35:00
2:55 PM,33.8,17.6,52,29.96,10.0,NW,9.2,-,N/A,,Mostly Cloudy,310,2013-02-16 19:55:00
3:15 PM,32.0,17.6,55,29.97,7.0,WNW,8.1,17.3,N/A,,Mostly Cloudy,290,2013-02-16 20:15:00
3:35 PM,32.0,15.8,51,29.96,10.0,West,4.6,-,N/A,,Mostly Cloudy,270,2013-02-16 20:35:00
3:55 PM,32.0,19.4,60,29.96,10.0,WSW,5.8,-,N/A,,Mostly Cloudy,240,2013-02-16 20:55:00
4:35 PM,32.0,17.6,55,29.97,10.0,WNW,8.1,-,N/A,,Mostly Cloudy,300,2013-02-16 21:35:00
4:55 PM,30.2,19.4,64,29.98,4.0,WNW,17.3,21.9,N/A,,Mostly Cloudy,290,2013-02-16 21:55:00
5:15 PM,28.4,24.8,86,29.99,2.0,WNW,3.5,-,N/A,,Overcast,290,2013-02-16 22:15:00
5:35 PM,28.4,21.2,74,29.99,10.0,WNW,9.2,-,N/A,,Mostly Cloudy,290,2013-02-16 22:35:00
5:55 PM,28.4,21.2,74,29.99,7.0,West,4.6,-,N/A,,Mostly Cloudy,260,2013-02-16 22:55:00
6:15 PM,28.4,21.2,74,29.99,10.0,West,3.5,-,N/A,,Mostly Cloudy,280,2013-02-16 23:15:00
6:55 PM,26.6,21.2,80,30.01,5.0,WSW,5.8,-,N/A,,Overcast,240,2013-02-16 23:55:00
7:15 PM,26.6,21.2,80,30.01,10.0,West,4.6,-,N/A,,Mostly Cloudy,280,2013-02-17 00:15:00
7:35 PM,26.6,21.2,80,30.01,10.0,WSW,5.8,-,N/A,,Scattered Clouds,250,2013-02-17 00:35:00
7:55 PM,26.6,19.4,74,30.01,10.0,West,5.8,-,N/A,,Clear,260,2013-02-17 00:55:00
8:15 PM,26.6,17.6,69,30.01,10.0,West,6.9,-,N/A,,Clear,270,2013-02-17 01:15:00
8:35 PM,26.6,15.8,64,30.01,10.0,West,5.8,-,N/A,,Clear,260,2013-02-17 01:35:00
8:55 PM,26.6,15.8,64,30.02,10.0,WSW,4.6,-,N/A,,Scattered Clouds,250,2013-02-17 01:55:00
9:15 PM,26.6,14.0,59,30.02,10.0,West,6.9,-,N/A,,Scattered Clouds,270,2013-02-17 02:15:00
9:35 PM,26.6,14.0,59,30.03,10.0,West,5.8,-,N/A,,Clear,260,2013-02-17 02:35:00
9:55 PM,26.6,12.2,55,30.03,10.0,West,8.1,-,N/A,,Clear,260,2013-02-17 02:55:00
10:15 PM,26.6,12.2,55,30.03,10.0,WSW,6.9,-,N/A,,Clear,250,2013-02-17 03:15:00
10:35 PM,26.6,10.4,51,30.04,10.0,West,9.2,-,N/A,,Scattered Clouds,270,2013-02-17 03:35:00
10:55 PM,26.6,10.4,51,30.04,10.0,WSW,9.2,-,N/A,,Overcast,250,2013-02-17 03:55:00
11:15 PM,26.6,8.6,47,30.04,10.0,West,10.4,17.3,N/A,,Overcast,260,2013-02-17 04:15:00
11:35 PM,26.6,8.6,47,30.05,10.0,West,9.2,25.3,N/A,,Mostly Cloudy,270,2013-02-17 04:35:00
11:55 PM,24.8,8.6,50,30.05,10.0,WNW,11.5,25.3,N/A,,Scattered Clouds,290,2013-02-17 04:55:00